Time;durP1;ratioP1;P1;durP2;ratioP2;P2;SDS_P1;SDS_P2;PMS_P1;PMS_P2;Temp;Humidity;BMP_temperature;BMP_pressure;BME280_temperature;BME280_humidity;BME280_pressure;Samples;Min_cycle;Max_cycle;Signal;HPM_P1;HPM_P2
2021/12/08 00:00:30;;;;;;;;;;;20.40;47.80;;;;;;6223113;28;21101;-41
2021/12/08 00:03:32;;;;;;;;;;;20.50;47.80;;;;;;6230701;28;19935;-40
2021/12/08 00:06:34;;;;;;;;;;;20.50;47.40;;;;;;6228302;28;19928;-41
2021/12/08 00:09:48;;;;;;;;;;;20.40;47.90;;;;;;6224140;28;20103;-39
2021/12/08 00:16:04;;;;;;;;;;;20.40;47.70;;;;;;6228581;28;20036;-39
2021/12/08 00:19:05;;;;;;;;;;;20.90;47.80;;;;;;6231238;28;19928;-38
2021/12/08 00:22:06;;;;;;;;;;;20.30;47.60;;;;;;6233152;28;19939;-40
2021/12/08 00:25:08;;;;;;;;;;;20.50;47.80;;;;;;6232806;28;19928;-39
2021/12/08 00:28:10;;;;;;;;;;;20.70;47.50;;;;;;6229715;28;21495;-38
2021/12/08 00:31:12;;;;;;;;;;;20.70;47.70;;;;;;6229116;28;19928;-38
2021/12/08 00:34:14;;;;;;;;;;;20.60;47.90;;;;;;6229414;28;19924;-38
2021/12/08 00:37:16;;;;;;;;;;;20.50;47.60;;;;;;6226334;28;20011;-39
2021/12/08 00:40:18;;;;;;;;;;;21.00;48.00;;;;;;6211733;28;20940;-38
2021/12/08 00:43:20;;;;;;;;;;;20.40;47.70;;;;;;6233694;28;20023;-39
2021/12/08 00:46:22;;;;;;;;;;;20.50;47.70;;;;;;6239267;28;20026;-38
2021/12/08 00:49:24;;;;;;;;;;;20.80;47.80;;;;;;6214072;28;20055;-39
2021/12/08 00:52:31;;;;;;;;;;;20.70;47.80;;;;;;6214191;28;20454;-40
2021/12/08 00:55:32;;;;;;;;;;;21.20;48.00;;;;;;6235553;28;21045;-39
2021/12/08 00:58:34;;;;;;;;;;;20.50;47.60;;;;;;6236121;28;19924;-39
2021/12/08 01:01:35;;;;;;;;;;;20.80;47.90;;;;;;6238365;28;20038;-39
2021/12/08 01:04:37;;;;;;;;;;;20.70;47.90;;;;;;6242391;28;19920;-38
2021/12/08 01:07:39;;;;;;;;;;;20.70;47.80;;;;;;6237337;28;21710;-38
2021/12/08 01:10:41;;;;;;;;;;;20.30;47.50;;;;;;6202069;28;20051;-37
2021/12/08 01:13:43;;;;;;;;;;;20.20;47.50;;;;;;6235021;28;20066;-39
2021/12/08 01:16:45;;;;;;;;;;;20.40;47.60;;;;;;6233242;28;21423;-38
2021/12/08 01:19:46;;;;;;;;;;;20.20;47.50;;;;;;6242155;28;20757;-41
2021/12/08 01:22:48;;;;;;;;;;;20.50;47.70;;;;;;6229018;28;19967;-38
2021/12/08 01:25:50;;;;;;;;;;;20.70;47.30;;;;;;6238835;28;19925;-38
2021/12/08 01:28:55;;;;;;;;;;;20.40;47.50;;;;;;6238002;28;20247;-38
2021/12/08 01:31:57;;;;;;;;;;;20.10;47.40;;;;;;6235348;28;19935;-38
2021/12/08 01:34:59;;;;;;;;;;;20.80;46.90;;;;;;6242335;28;20005;-39
2021/12/08 01:38:00;;;;;;;;;;;20.00;47.40;;;;;;6238757;28;20087;-37
2021/12/08 01:41:03;;;;;;;;;;;20.40;47.80;;;;;;6243956;28;20752;-38
2021/12/08 01:47:23;;;;;;;;;;;20.60;47.40;;;;;;6215180;28;20081;-38
2021/12/08 01:50:25;;;;;;;;;;;20.20;47.50;;;;;;6226862;28;20043;-39
2021/12/08 01:53:27;;;;;;;;;;;20.40;47.60;;;;;;6250511;28;19928;-39
2021/12/08 01:56:29;;;;;;;;;;;20.70;47.50;;;;;;6239196;28;20914;-38
2021/12/08 01:59:30;;;;;;;;;;;20.30;47.40;;;;;;6239476;28;19933;-38
2021/12/08 02:02:33;;;;;;;;;;;20.20;47.50;;;;;;6241482;28;19970;-40
2021/12/08 02:05:34;;;;;;;;;;;20.10;47.40;;;;;;6245909;28;20133;-39
2021/12/08 02:08:36;;;;;;;;;;;20.40;47.60;;;;;;6244235;28;21228;-39
2021/12/08 02:11:38;;;;;;;;;;;20.50;47.40;;;;;;6239498;28;20772;-38
2021/12/08 02:14:40;;;;;;;;;;;20.40;47.40;;;;;;6255299;28;20070;-38
2021/12/08 02:17:44;;;;;;;;;;;20.40;47.60;;;;;;6240053;28;19998;-38
2021/12/08 02:20:47;;;;;;;;;;;20.10;47.40;;;;;;6225458;28;19935;-40
2021/12/08 02:23:50;;;;;;;;;;;20.30;47.60;;;;;;6245450;28;20085;-38
2021/12/08 02:26:51;;;;;;;;;;;21.00;47.90;;;;;;6242638;28;20885;-38
2021/12/08 02:29:58;;;;;;;;;;;20.20;47.40;;;;;;6226967;28;20003;-40
2021/12/08 02:49:18;;;;;;;;;;;20.30;47.50;;;;;;6205663;28;20166;-37
2021/12/08 02:52:20;;;;;;;;;;;20.20;47.40;;;;;;6223897;28;19924;-38
2021/12/08 02:55:22;;;;;;;;;;;20.50;47.80;;;;;;6225678;28;20072;-37
2021/12/08 02:58:25;;;;;;;;;;;20.60;47.60;;;;;;6234866;28;20156;-38
2021/12/08 03:01:27;;;;;;;;;;;20.10;46.60;;;;;;6232658;28;20384;-38
2021/12/08 03:04:28;;;;;;;;;;;20.30;47.40;;;;;;6233729;28;20022;-38
2021/12/08 03:07:30;;;;;;;;;;;20.10;47.40;;;;;;6232861;28;20633;-37
2021/12/08 03:10:33;;;;;;;;;;;20.20;47.60;;;;;;6231767;28;20419;-38
2021/12/08 03:13:37;;;;;;;;;;;20.50;47.60;;;;;;6232232;28;20368;-37
2021/12/08 03:16:41;;;;;;;;;;;20.20;47.40;;;;;;6235793;28;20135;-37
2021/12/08 03:19:42;;;;;;;;;;;20.20;47.40;;;;;;6237901;28;19928;-37
2021/12/08 03:22:46;;;;;;;;;;;20.40;47.60;;;;;;6237755;28;20224;-37
2021/12/08 03:25:55;;;;;;;;;;;20.50;47.60;;;;;;6237100;28;19925;-37
2021/12/08 03:29:03;;;;;;;;;;;20.90;47.80;;;;;;6247563;28;20517;-37
2021/12/08 03:32:07;;;;;;;;;;;20.10;47.40;;;;;;6207788;28;19932;-37
2021/12/08 03:35:11;;;;;;;;;;;20.10;47.40;;;;;;6231510;28;20027;-37
2021/12/08 03:38:12;;;;;;;;;;;20.30;47.40;;;;;;6213616;28;19970;-39
2021/12/08 03:41:14;;;;;;;;;;;19.90;47.30;;;;;;6231581;28;20437;-38
2021/12/08 03:44:16;;;;;;;;;;;20.10;47.50;;;;;;6235530;28;20034;-37
2021/12/08 03:47:25;;;;;;;;;;;20.10;47.40;;;;;;6232651;28;20166;-37
2021/12/08 03:50:27;;;;;;;;;;;20.10;47.20;;;;;;6230268;28;20744;-37
2021/12/08 03:53:29;;;;;;;;;;;20.10;46.80;;;;;;6234081;28;20361;-37
2021/12/08 03:56:31;;;;;;;;;;;20.40;47.70;;;;;;6234294;28;20317;-38
2021/12/08 03:59:32;;;;;;;;;;;20.60;47.50;;;;;;6230032;28;19932;-38
2021/12/08 04:02:33;;;;;;;;;;;19.90;47.30;;;;;;6232871;28;20236;-38
2021/12/08 04:05:43;;;;;;;;;;;20.50;47.60;;;;;;6227882;28;19935;-38
2021/12/08 04:08:54;;;;;;;;;;;20.20;47.40;;;;;;6228196;28;20275;-37
2021/12/08 04:11:56;;;;;;;;;;;20.10;47.50;;;;;;6228153;28;20438;-38
2021/12/08 04:14:59;;;;;;;;;;;20.40;47.60;;;;;;6231604;28;19934;-37
2021/12/08 04:18:00;;;;;;;;;;;20.00;47.40;;;;;;6221236;28;20004;-39
2021/12/08 04:21:02;;;;;;;;;;;19.90;47.40;;;;;;6243446;28;19934;-38
2021/12/08 04:24:04;;;;;;;;;;;20.10;47.40;;;;;;6222564;28;20518;-37
2021/12/08 04:27:08;;;;;;;;;;;20.40;47.70;;;;;;6235806;28;19971;-38
2021/12/08 04:30:13;;;;;;;;;;;20.80;47.80;;;;;;6218592;28;19924;-40
2021/12/08 04:33:14;;;;;;;;;;;20.60;47.50;;;;;;6228932;28;19928;-38
2021/12/08 04:36:17;;;;;;;;;;;20.10;47.50;;;;;;6233405;28;20023;-39
2021/12/08 04:39:26;;;;;;;;;;;19.90;47.40;;;;;;6243934;28;20827;-38
2021/12/08 04:42:42;;;;;;;;;;;20.00;47.40;;;;;;6224676;28;19928;-41
2021/12/08 04:45:52;;;;;;;;;;;20.30;47.60;;;;;;6244793;28;19927;-38
2021/12/08 04:49:14;;;;;;;;;;;20.00;47.30;;;;;;6226627;28;19925;-38
2021/12/08 04:52:20;;;;;;;;;;;20.10;47.40;;;;;;6244156;28;20035;-38
2021/12/08 05:02:05;;;;;;;;;;;20.20;47.40;;;;;;6238435;28;20458;-37
2021/12/08 05:05:21;;;;;;;;;;;20.00;47.50;;;;;;6221260;28;20651;-38
2021/12/08 05:08:34;;;;;;;;;;;20.10;47.40;;;;;;6226027;28;19928;-38
2021/12/08 05:11:37;;;;;;;;;;;20.10;47.60;;;;;;6246010;28;20039;-39
2021/12/08 05:14:40;;;;;;;;;;;20.00;47.50;;;;;;6225269;28;19968;-39
2021/12/08 05:17:43;;;;;;;;;;;20.00;47.50;;;;;;6238820;28;19928;-39
2021/12/08 05:20:47;;;;;;;;;;;20.00;47.40;;;;;;6221827;28;20768;-38
2021/12/08 05:23:51;;;;;;;;;;;20.20;47.50;;;;;;6225277;28;21465;-39
2021/12/08 05:26:54;;;;;;;;;;;19.80;47.20;;;;;;6221948;28;19935;-37
2021/12/08 05:29:58;;;;;;;;;;;20.10;47.40;;;;;;6215383;28;20046;-40
2021/12/08 05:33:01;;;;;;;;;;;20.30;47.60;;;;;;6238355;28;19958;-37
2021/12/08 05:36:03;;;;;;;;;;;20.10;47.50;;;;;;6236392;28;19928;-38
2021/12/08 05:39:06;;;;;;;;;;;20.00;47.40;;;;;;6227108;28;20466;-38
2021/12/08 05:42:09;;;;;;;;;;;20.30;47.60;;;;;;6228810;28;19932;-37
2021/12/08 05:45:14;;;;;;;;;;;20.20;47.40;;;;;;6234899;28;19920;-39
2021/12/08 05:48:16;;;;;;;;;;;20.00;47.30;;;;;;6239570;28;20222;-39
2021/12/08 05:51:19;;;;;;;;;;;19.90;47.30;;;;;;6239669;28;20042;-39
2021/12/08 05:54:22;;;;;;;;;;;20.10;47.50;;;;;;6239509;28;20184;-39
2021/12/08 05:57:25;;;;;;;;;;;19.90;47.30;;;;;;6220346;28;19989;-39
2021/12/08 06:00:31;;;;;;;;;;;20.10;47.50;;;;;;6233205;28;20884;-37
2021/12/08 06:03:34;;;;;;;;;;;20.60;46.90;;;;;;6234353;28;20033;-38
2021/12/08 06:06:41;;;;;;;;;;;20.00;47.50;;;;;;6210698;28;19932;-37
2021/12/08 06:09:43;;;;;;;;;;;19.90;44.10;;;;;;6215246;28;19950;-39
2021/12/08 06:12:45;;;;;;;;;;;20.20;47.60;;;;;;6232813;28;19959;-41
2021/12/08 06:15:47;;;;;;;;;;;19.80;47.40;;;;;;6233764;28;20095;-37
2021/12/08 06:18:51;;;;;;;;;;;20.10;47.40;;;;;;6237697;28;19932;-38
2021/12/08 06:21:53;;;;;;;;;;;19.80;47.20;;;;;;6234918;28;19935;-38
2021/12/08 06:24:54;;;;;;;;;;;19.80;47.30;;;;;;6226257;28;19934;-37
2021/12/08 06:28:00;;;;;;;;;;;19.90;47.50;;;;;;6231309;28;19928;-39
2021/12/08 06:31:04;;;;;;;;;;;20.20;47.50;;;;;;6233029;28;20050;-40
2021/12/08 06:34:06;;;;;;;;;;;20.80;47.90;;;;;;6227941;28;19927;-38
2021/12/08 06:37:09;;;;;;;;;;;20.10;47.50;;;;;;6216091;28;20006;-37
2021/12/08 06:40:13;;;;;;;;;;;19.80;47.30;;;;;;6213255;28;20043;-40
2021/12/08 06:43:16;;;;;;;;;;;19.80;47.20;;;;;;6227635;28;19928;-37
2021/12/08 06:46:19;;;;;;;;;;;20.00;47.10;;;;;;6230868;28;19990;-38
2021/12/08 06:49:21;;;;;;;;;;;20.50;47.60;;;;;;6235147;28;19931;-39
2021/12/08 06:52:23;;;;;;;;;;;20.10;47.20;;;;;;6206142;28;20046;-39
2021/12/08 06:55:27;;;;;;;;;;;19.90;47.00;;;;;;6228300;28;19928;-37
2021/12/08 06:58:33;;;;;;;;;;;19.90;46.90;;;;;;6227722;28;19978;-38
2021/12/08 07:01:42;;;;;;;;;;;20.50;46.70;;;;;;6225651;28;19929;-38
2021/12/08 07:04:55;;;;;;;;;;;20.80;47.00;;;;;;6220955;28;19936;-40
2021/12/08 07:07:59;;;;;;;;;;;20.50;46.90;;;;;;6212762;28;20949;-37
2021/12/08 07:11:00;;;;;;;;;;;20.60;46.90;;;;;;6217434;28;19928;-39
2021/12/08 07:14:02;;;;;;;;;;;20.90;47.00;;;;;;6198131;28;20719;-39
2021/12/08 07:17:07;;;;;;;;;;;20.30;46.60;;;;;;6183108;28;20051;-38
2021/12/08 07:20:18;;;;;;;;;;;20.20;47.20;;;;;;6194655;28;19935;-38
2021/12/08 07:23:21;;;;;;;;;;;20.30;46.30;;;;;;6181965;28;20838;-39
2021/12/08 07:26:24;;;;;;;;;;;20.20;46.20;;;;;;6183368;28;19928;-38
2021/12/08 07:29:28;;;;;;;;;;;20.30;46.20;;;;;;6207275;28;19934;-38
2021/12/08 07:32:36;;;;;;;;;;;20.70;46.40;;;;;;6194772;28;19935;-39
2021/12/08 07:35:41;;;;;;;;;;;20.80;45.90;;;;;;6167351;28;21298;-39
2021/12/08 07:38:44;;;;;;;;;;;20.50;46.20;;;;;;6149986;28;21107;-39
2021/12/08 07:41:49;;;;;;;;;;;20.40;46.00;;;;;;6108091;28;21391;-38
2021/12/08 07:44:52;;;;;;;;;;;20.80;46.30;;;;;;6138746;28;20459;-38
2021/12/08 07:47:54;;;;;;;;;;;20.90;45.70;;;;;;6124550;28;20004;-38
2021/12/08 07:50:59;;;;;;;;;;;20.40;45.90;;;;;;6136184;28;19935;-39
2021/12/08 07:54:01;;;;;;;;;;;21.00;45.60;;;;;;6098654;28;19928;-40
2021/12/08 07:57:06;;;;;;;;;;;22.70;46.80;;;;;;6112178;28;19929;-39
2021/12/08 08:00:13;;;;;;;;;;;20.60;45.90;;;;;;6063636;28;19948;-41
2021/12/08 08:03:18;;;;;;;;;;;20.60;45.90;;;;;;6065546;28;20973;-41
2021/12/08 08:06:21;;;;;;;;;;;21.10;46.00;;;;;;6027640;28;20619;-41
2021/12/08 08:09:27;;;;;;;;;;;21.10;46.20;;;;;;6037330;28;19971;-40
2021/12/08 08:12:32;;;;;;;;;;;20.70;45.80;;;;;;6037462;28;19935;-39
2021/12/08 08:15:36;;;;;;;;;;;20.70;45.70;;;;;;6033898;28;20062;-42
2021/12/08 08:18:40;;;;;;;;;;;21.20;46.00;;;;;;6040890;28;19928;-41
2021/12/08 08:21:43;;;;;;;;;;;20.90;45.90;;;;;;6028451;28;19935;-40
2021/12/08 08:24:45;;;;;;;;;;;21.10;45.80;;;;;;6065744;28;19935;-41
2021/12/08 08:27:51;;;;;;;;;;;21.00;46.00;;;;;;6051280;28;20128;-39
2021/12/08 08:30:54;;;;;;;;;;;21.50;45.80;;;;;;5994819;28;19935;-41
2021/12/08 08:33:56;;;;;;;;;;;21.10;45.60;;;;;;6005601;28;19928;-40
2021/12/08 08:36:57;;;;;;;;;;;21.10;45.60;;;;;;6023528;28;20763;-41
2021/12/08 08:40:03;;;;;;;;;;;21.30;45.50;;;;;;6031705;28;19928;-40
2021/12/08 08:43:05;;;;;;;;;;;20.80;44.90;;;;;;6018229;28;20020;-40
2021/12/08 08:46:09;;;;;;;;;;;21.40;45.70;;;;;;6021657;28;19929;-41
2021/12/08 08:49:13;;;;;;;;;;;21.00;45.10;;;;;;6013256;28;20705;-40
2021/12/08 08:52:16;;;;;;;;;;;21.20;45.10;;;;;;6030812;28;19928;-40
2021/12/08 08:55:20;;;;;;;;;;;21.90;45.50;;;;;;6070059;28;19929;-40
2021/12/08 08:58:23;;;;;;;;;;;21.30;45.00;;;;;;6022524;28;19986;-40
2021/12/08 09:01:26;;;;;;;;;;;21.50;45.10;;;;;;5980440;28;19928;-41
2021/12/08 09:04:30;;;;;;;;;;;21.60;45.00;;;;;;5996550;28;19972;-41
2021/12/08 09:07:34;;;;;;;;;;;21.80;44.80;;;;;;6024198;28;20054;-41
2021/12/08 09:10:39;;;;;;;;;;;21.80;45.30;;;;;;6011832;28;25789;-39
2021/12/08 09:13:44;;;;;;;;;;;21.70;45.10;;;;;;6022768;28;21915;-42
2021/12/08 09:16:47;;;;;;;;;;;21.80;45.20;;;;;;6020287;28;29488;-42
2021/12/08 09:19:50;;;;;;;;;;;22.60;45.50;;;;;;6005662;28;22520;-40
2021/12/08 09:22:57;;;;;;;;;;;21.90;45.20;;;;;;6034906;28;19929;-44
2021/12/08 09:26:00;;;;;;;;;;;21.60;45.10;;;;;;6033289;28;19928;-41
2021/12/08 09:29:05;;;;;;;;;;;21.90;44.90;;;;;;6043051;28;23473;-43
2021/12/08 09:32:08;;;;;;;;;;;21.90;45.00;;;;;;6042852;28;19935;-42
2021/12/08 09:35:12;;;;;;;;;;;22.10;45.00;;;;;;6007785;28;19980;-43
2021/12/08 09:38:17;;;;;;;;;;;22.10;45.00;;;;;;6014314;28;20062;-41
2021/12/08 09:41:25;;;;;;;;;;;22.10;44.60;;;;;;5972174;28;20054;-40
2021/12/08 09:44:29;;;;;;;;;;;22.10;44.90;;;;;;6044250;28;20045;-41
2021/12/08 09:47:30;;;;;;;;;;;21.90;44.60;;;;;;6057614;28;19983;-39
2021/12/08 09:50:33;;;;;;;;;;;22.10;44.70;;;;;;6022840;28;19942;-40
2021/12/08 09:53:35;;;;;;;;;;;22.00;44.20;;;;;;6005481;28;20916;-41
2021/12/08 09:56:39;;;;;;;;;;;22.10;44.30;;;;;;6011221;28;21443;-41
2021/12/08 09:59:46;;;;;;;;;;;22.50;44.80;;;;;;6024658;28;19929;-42
2021/12/08 10:02:48;;;;;;;;;;;22.30;43.90;;;;;;6034014;28;19934;-41
2021/12/08 10:05:50;;;;;;;;;;;22.30;44.30;;;;;;5993334;28;19936;-39
2021/12/08 10:08:57;;;;;;;;;;;21.60;43.60;;;;;;6015302;28;20988;-40
2021/12/08 10:11:58;;;;;;;;;;;22.20;44.00;;;;;;6018452;28;23690;-40
2021/12/08 10:14:59;;;;;;;;;;;21.80;43.90;;;;;;6020543;28;19935;-40
2021/12/08 10:18:06;;;;;;;;;;;22.20;44.00;;;;;;6016075;28;20120;-40
2021/12/08 10:21:08;;;;;;;;;;;22.10;43.30;;;;;;6032931;28;21077;-40
2021/12/08 10:24:15;;;;;;;;;;;22.30;43.90;;;;;;6044104;28;21296;-41
2021/12/08 10:27:17;;;;;;;;;;;22.00;43.50;;;;;;6053950;28;19928;-40
2021/12/08 10:30:19;;;;;;;;;;;22.50;43.80;;;;;;6061224;28;20118;-40
2021/12/08 10:36:54;;;;;;;;;;;22.60;43.90;;;;;;6034033;28;19928;-41
2021/12/08 10:39:59;;;;;;;;;;;22.40;43.70;;;;;;6051152;28;19928;-40
2021/12/08 10:43:10;;;;;;;;;;;22.20;43.40;;;;;;6040334;28;23417;-41
2021/12/08 10:56:40;;;;;;;;;;;22.70;43.90;;;;;;6039158;28;19935;-40
2021/12/08 10:59:58;;;;;;;;;;;22.30;43.70;;;;;;6051064;28;21868;-39
2021/12/08 11:03:11;;;;;;;;;;;22.70;43.70;;;;;;6035800;28;20855;-41
2021/12/08 11:06:20;;;;;;;;;;;22.20;43.50;;;;;;6035775;28;19951;-42
2021/12/08 11:09:39;;;;;;;;;;;22.60;43.60;;;;;;6047647;28;19994;-40
2021/12/08 11:12:51;;;;;;;;;;;22.40;43.10;;;;;;6056907;28;19936;-39
2021/12/08 11:16:08;;;;;;;;;;;22.70;44.00;;;;;;6062845;28;19935;-40
2021/12/08 11:19:15;;;;;;;;;;;22.00;43.40;;;;;;6060196;28;19928;-39
2021/12/08 11:22:40;;;;;;;;;;;22.20;43.60;;;;;;6075477;28;19936;-39
2021/12/08 11:25:50;;;;;;;;;;;22.20;43.60;;;;;;6088739;28;19936;-39
2021/12/08 11:29:00;;;;;;;;;;;22.00;43.50;;;;;;6082857;28;20050;-40
2021/12/08 11:32:05;;;;;;;;;;;22.10;43.70;;;;;;6126566;28;19932;-40
2021/12/08 11:35:18;;;;;;;;;;;22.50;44.00;;;;;;6127954;28;19967;-41
2021/12/08 11:38:30;;;;;;;;;;;22.40;43.80;;;;;;6127121;28;20853;-40
2021/12/08 11:41:47;;;;;;;;;;;22.30;43.80;;;;;;6133992;28;19928;-40
2021/12/08 11:44:51;;;;;;;;;;;22.30;43.90;;;;;;6159297;28;22104;-40
2021/12/08 11:47:52;;;;;;;;;;;22.40;44.00;;;;;;6126215;28;19928;-40
2021/12/08 11:51:06;;;;;;;;;;;22.10;44.00;;;;;;6131689;28;20050;-40
2021/12/08 11:54:07;;;;;;;;;;;22.30;44.10;;;;;;6108906;28;19935;-40
2021/12/08 11:57:11;;;;;;;;;;;22.80;44.40;;;;;;6143133;28;19972;-41
2021/12/08 12:00:15;;;;;;;;;;;22.20;43.90;;;;;;6118688;28;20060;-40
2021/12/08 12:03:18;;;;;;;;;;;22.10;43.90;;;;;;6145244;28;21770;-41
2021/12/08 12:06:27;;;;;;;;;;;22.00;44.00;;;;;;6159308;28;20915;-41
2021/12/08 12:09:29;;;;;;;;;;;22.40;44.30;;;;;;6118735;28;19929;-41
2021/12/08 12:12:31;;;;;;;;;;;22.50;44.20;;;;;;6135025;28;32872;-41
2021/12/08 12:15:32;;;;;;;;;;;22.70;44.30;;;;;;6119540;28;19951;-40
2021/12/08 12:18:33;;;;;;;;;;;22.90;44.50;;;;;;6133873;28;20806;-39
2021/12/08 12:21:46;;;;;;;;;;;22.40;44.20;;;;;;6126593;28;19957;-40
2021/12/08 12:24:53;;;;;;;;;;;21.90;43.90;;;;;;6143900;28;20048;-40
2021/12/08 12:28:00;;;;;;;;;;;22.00;43.90;;;;;;6123821;28;19929;-40
2021/12/08 12:31:08;;;;;;;;;;;22.00;44.00;;;;;;6107245;28;21599;-40
2021/12/08 12:34:21;;;;;;;;;;;22.70;44.30;;;;;;6125448;28;19936;-39
2021/12/08 12:37:31;;;;;;;;;;;22.30;44.20;;;;;;6111917;28;20644;-41
2021/12/08 12:40:34;;;;;;;;;;;22.30;44.20;;;;;;6088427;28;20075;-41
2021/12/08 12:43:38;;;;;;;;;;;22.20;44.30;;;;;;6043476;28;23170;-42
2021/12/08 12:46:56;;;;;;;;;;;22.50;44.20;;;;;;6104613;28;20050;-41
2021/12/08 12:50:11;;;;;;;;;;;21.90;43.80;;;;;;6070835;28;22065;-41
2021/12/08 12:53:29;;;;;;;;;;;22.20;43.80;;;;;;6083450;28;21131;-40
2021/12/08 12:56:49;;;;;;;;;;;22.50;44.00;;;;;;6085592;28;21020;-41
2021/12/08 12:59:52;;;;;;;;;;;23.20;44.20;;;;;;6074269;28;19941;-43
2021/12/08 13:02:54;;;;;;;;;;;22.20;43.70;;;;;;6013769;28;19959;-40
2021/12/08 13:05:55;;;;;;;;;;;22.10;43.50;;;;;;6034455;28;19928;-41
2021/12/08 13:08:57;;;;;;;;;;;22.30;43.30;;;;;;6066930;28;19929;-40
2021/12/08 13:12:06;;;;;;;;;;;22.90;43.60;;;;;;6042134;28;19936;-41
2021/12/08 13:15:19;;;;;;;;;;;22.40;43.40;;;;;;6051876;28;19934;-39
2021/12/08 13:18:23;;;;;;;;;;;22.30;43.30;;;;;;6078954;28;19928;-40
2021/12/08 13:21:39;;;;;;;;;;;22.80;43.60;;;;;;6076295;28;21480;-41
2021/12/08 13:24:42;;;;;;;;;;;22.80;43.70;;;;;;6029484;28;19928;-40
2021/12/08 13:27:47;;;;;;;;;;;23.20;44.00;;;;;;6081601;28;19936;-39
2021/12/08 13:30:51;;;;;;;;;;;22.30;43.40;;;;;;6055240;28;19935;-39
2021/12/08 13:33:55;;;;;;;;;;;22.30;43.20;;;;;;6055972;28;20045;-39
2021/12/08 13:37:11;;;;;;;;;;;22.70;43.50;;;;;;6049151;28;20066;-39
2021/12/08 13:40:15;;;;;;;;;;;22.20;43.30;;;;;;6031883;28;19928;-39
2021/12/08 13:43:37;;;;;;;;;;;22.70;43.60;;;;;;6044821;28;19968;-39
2021/12/08 13:46:39;;;;;;;;;;;22.80;43.50;;;;;;6023081;28;19928;-39
2021/12/08 13:49:46;;;;;;;;;;;22.60;43.40;;;;;;6033002;28;20047;-39
2021/12/08 13:52:57;;;;;;;;;;;22.80;43.20;;;;;;6031628;28;19928;-40
2021/12/08 13:55:59;;;;;;;;;;;22.50;43.00;;;;;;6055258;28;19935;-40
2021/12/08 13:59:01;;;;;;;;;;;22.80;43.10;;;;;;6041462;28;19966;-40
2021/12/08 14:02:17;;;;;;;;;;;22.60;42.60;;;;;;6023695;28;19929;-39
2021/12/08 14:05:21;;;;;;;;;;;22.80;43.20;;;;;;6006958;28;19928;-39
2021/12/08 14:08:24;;;;;;;;;;;22.50;42.80;;;;;;6037602;28;20071;-41
2021/12/08 14:11:29;;;;;;;;;;;22.40;43.00;;;;;;6027466;28;19938;-40
2021/12/08 14:14:30;;;;;;;;;;;23.00;43.40;;;;;;6038308;28;19975;-42
2021/12/08 14:17:31;;;;;;;;;;;22.70;43.10;;;;;;6034305;28;19928;-41
2021/12/08 14:20:34;;;;;;;;;;;22.60;43.00;;;;;;6057309;28;20042;-40
2021/12/08 14:23:37;;;;;;;;;;;22.80;43.00;;;;;;6062205;28;19935;-40
2021/12/08 14:26:40;;;;;;;;;;;23.30;42.60;;;;;;6061480;28;19936;-43
2021/12/08 14:29:46;;;;;;;;;;;22.50;42.10;;;;;;6029095;28;19928;-41
2021/12/08 14:32:58;;;;;;;;;;;22.70;42.80;;;;;;6035355;28;19936;-40
2021/12/08 14:36:03;;;;;;;;;;;23.60;43.30;;;;;;6064601;28;19928;-41
2021/12/08 14:39:06;;;;;;;;;;;23.50;43.40;;;;;;6038503;28;20117;-40
2021/12/08 14:42:09;;;;;;;;;;;23.10;43.10;;;;;;6073362;28;19928;-42
2021/12/08 14:45:10;;;;;;;;;;;22.80;42.90;;;;;;6027753;28;19928;-42
2021/12/08 14:48:13;;;;;;;;;;;22.90;42.70;;;;;;6050919;28;19928;-40
2021/12/08 14:51:21;;;;;;;;;;;23.20;40.60;;;;;;6058775;28;19971;-39
2021/12/08 14:54:23;;;;;;;;;;;22.90;42.50;;;;;;6040290;28;19936;-40
2021/12/08 14:57:26;;;;;;;;;;;22.80;42.50;;;;;;6035162;28;20046;-40
2021/12/08 15:00:29;;;;;;;;;;;22.80;42.60;;;;;;5988649;28;36218;-39
2021/12/08 15:03:37;;;;;;;;;;;22.80;42.40;;;;;;6013463;28;19935;-39
2021/12/08 15:06:51;;;;;;;;;;;23.20;42.70;;;;;;6005134;28;19992;-39
2021/12/08 15:09:56;;;;;;;;;;;23.30;42.70;;;;;;6029885;28;19928;-39
2021/12/08 15:13:06;;;;;;;;;;;23.10;42.50;;;;;;6009856;28;19928;-39
2021/12/08 15:16:11;;;;;;;;;;;23.20;42.60;;;;;;6017722;28;20905;-39
2021/12/08 15:19:13;;;;;;;;;;;23.10;42.60;;;;;;6030619;28;19932;-39
2021/12/08 15:22:16;;;;;;;;;;;22.70;42.40;;;;;;6023521;28;21514;-39
2021/12/08 15:25:18;;;;;;;;;;;22.90;42.40;;;;;;6038300;28;19932;-40
2021/12/08 15:28:23;;;;;;;;;;;23.20;42.60;;;;;;6035519;28;19928;-40
2021/12/08 15:31:28;;;;;;;;;;;23.40;42.70;;;;;;6019857;28;21202;-39
2021/12/08 15:34:33;;;;;;;;;;;22.70;42.40;;;;;;6047928;28;20473;-41
2021/12/08 15:37:36;;;;;;;;;;;23.00;42.60;;;;;;5999669;28;21901;-40
2021/12/08 15:40:38;;;;;;;;;;;23.10;42.60;;;;;;6017409;28;19928;-40
2021/12/08 15:43:40;;;;;;;;;;;23.10;42.70;;;;;;5985345;28;19928;-40
2021/12/08 15:46:44;;;;;;;;;;;22.80;42.60;;;;;;6007971;28;19935;-41
2021/12/08 15:49:46;;;;;;;;;;;23.20;42.80;;;;;;6019392;28;19935;-40
2021/12/08 15:52:51;;;;;;;;;;;23.10;42.60;;;;;;5991912;28;20374;-40
2021/12/08 15:55:53;;;;;;;;;;;22.90;42.50;;;;;;6019604;28;21113;-40
2021/12/08 15:58:55;;;;;;;;;;;22.70;42.40;;;;;;6038593;28;19935;-40
2021/12/08 16:01:57;;;;;;;;;;;22.50;42.30;;;;;;6047736;28;19932;-41
2021/12/08 16:05:02;;;;;;;;;;;22.50;42.20;;;;;;6044730;28;19965;-40
2021/12/08 16:08:28;;;;;;;;;;;22.50;42.50;;;;;;6046084;28;20915;-41
2021/12/08 16:11:31;;;;;;;;;;;22.50;42.40;;;;;;6022701;28;19928;-41
2021/12/08 16:14:33;;;;;;;;;;;22.60;43.00;;;;;;6036054;28;20149;-40
2021/12/08 16:17:37;;;;;;;;;;;23.00;42.70;;;;;;6053051;28;19929;-40
2021/12/08 16:20:39;;;;;;;;;;;22.70;42.80;;;;;;6060108;28;19928;-40
2021/12/08 16:23:41;;;;;;;;;;;22.90;43.00;;;;;;6076007;28;19959;-41
2021/12/08 16:26:47;;;;;;;;;;;23.10;42.70;;;;;;6048326;28;21561;-40
2021/12/08 16:29:49;;;;;;;;;;;22.80;42.50;;;;;;6062519;28;20153;-40
2021/12/08 16:32:50;;;;;;;;;;;22.60;42.50;;;;;;6052454;28;19935;-41
2021/12/08 16:35:51;;;;;;;;;;;22.70;42.30;;;;;;6029985;28;19935;-40
2021/12/08 16:38:54;;;;;;;;;;;22.90;42.90;;;;;;6051611;28;20369;-41
2021/12/08 16:45:13;;;;;;;;;;;22.70;42.60;;;;;;6055591;28;19936;-40
2021/12/08 16:48:16;;;;;;;;;;;22.90;42.70;;;;;;6044174;28;19928;-40
2021/12/08 16:51:18;;;;;;;;;;;22.70;42.70;;;;;;6083298;28;19928;-42
2021/12/08 16:54:20;;;;;;;;;;;22.50;42.70;;;;;;6093661;28;19932;-39
2021/12/08 16:57:21;;;;;;;;;;;22.20;42.50;;;;;;6098009;28;19936;-41
2021/12/08 17:00:25;;;;;;;;;;;22.50;42.60;;;;;;6102750;28;19986;-39
2021/12/08 17:03:29;;;;;;;;;;;22.80;42.60;;;;;;6116742;28;22722;-38
2021/12/08 17:06:30;;;;;;;;;;;23.30;42.70;;;;;;6116507;28;20454;-39
2021/12/08 17:09:32;;;;;;;;;;;22.80;42.40;;;;;;6114173;28;20073;-39
2021/12/08 17:12:33;;;;;;;;;;;22.40;42.40;;;;;;6134109;28;19981;-38
2021/12/08 17:15:35;;;;;;;;;;;22.50;42.50;;;;;;6156540;28;19928;-38
2021/12/08 17:18:36;;;;;;;;;;;22.40;42.10;;;;;;6148327;28;19935;-38
2021/12/08 17:21:41;;;;;;;;;;;22.90;42.80;;;;;;6148627;28;20047;-38
2021/12/08 17:24:43;;;;;;;;;;;22.50;42.30;;;;;;6162283;28;19934;-39
2021/12/08 17:27:44;;;;;;;;;;;22.70;42.60;;;;;;6186285;28;19989;-38
2021/12/08 17:30:46;;;;;;;;;;;22.40;42.60;;;;;;6168974;28;20237;-39
2021/12/08 17:33:47;;;;;;;;;;;23.00;42.90;;;;;;6155495;28;19928;-38
2021/12/08 17:36:49;;;;;;;;;;;22.30;42.60;;;;;;6189068;28;19997;-38
2021/12/08 17:39:51;;;;;;;;;;;22.30;42.80;;;;;;6191724;28;20837;-39
2021/12/08 17:42:53;;;;;;;;;;;22.30;42.60;;;;;;6180031;28;20101;-39
2021/12/08 17:45:55;;;;;;;;;;;22.20;43.20;;;;;;6189735;28;20790;-39
2021/12/08 17:48:57;;;;;;;;;;;22.80;43.00;;;;;;6179814;28;19986;-40
2021/12/08 17:51:58;;;;;;;;;;;22.40;42.50;;;;;;6193251;28;20001;-38
2021/12/08 17:55:02;;;;;;;;;;;22.00;42.70;;;;;;6191766;28;21157;-38
2021/12/08 17:58:03;;;;;;;;;;;22.50;42.90;;;;;;6190234;28;20080;-39
2021/12/08 18:01:06;;;;;;;;;;;22.20;42.90;;;;;;6170271;28;19928;-38
2021/12/08 18:04:09;;;;;;;;;;;22.60;43.00;;;;;;6196762;28;19955;-39
2021/12/08 18:07:10;;;;;;;;;;;22.20;42.80;;;;;;6197216;28;19928;-38
2021/12/08 18:10:13;;;;;;;;;;;22.00;42.80;;;;;;6187155;28;20907;-38
2021/12/08 18:13:14;;;;;;;;;;;22.10;42.90;;;;;;6161575;28;20413;-38
2021/12/08 18:16:18;;;;;;;;;;;22.60;43.20;;;;;;6193976;28;19932;-39
2021/12/08 18:19:19;;;;;;;;;;;23.10;43.30;;;;;;6200943;28;20904;-39
2021/12/08 18:22:21;;;;;;;;;;;22.10;43.20;;;;;;6214011;28;19928;-39
2021/12/08 18:25:23;;;;;;;;;;;22.10;43.10;;;;;;6199996;28;19928;-39
2021/12/08 18:28:24;;;;;;;;;;;21.80;43.00;;;;;;6213490;28;20014;-40
2021/12/08 18:31:26;;;;;;;;;;;21.60;42.90;;;;;;6202105;28;21000;-39
2021/12/08 18:34:27;;;;;;;;;;;22.00;43.20;;;;;;6214344;28;19928;-38
2021/12/08 18:37:28;;;;;;;;;;;22.20;43.50;;;;;;6216564;28;19928;-38